Time;durP1;ratioP1;P1;durP2;ratioP2;P2;SDS_P1;SDS_P2;PMS_P1;PMS_P2;Temp;Humidity;BMP_temperature;BMP_pressure;BME280_temperature;BME280_humidity;BME280_pressure;Samples;Min_cycle;Max_cycle;Signal;HPM_P1;HPM_P2
2022/04/19 00:00:54;;;;;;;11.77;4.70;;;15.80;64.70;;;;;;5132617;27;20034;-66
2022/04/19 00:03:23;;;;;;;12.30;4.70;;;15.70;64.70;;;;;;5131640;27;20023;-66
2022/04/19 00:05:48;;;;;;;7.03;4.13;;;15.70;65.00;;;;;;5132562;27;20063;-66
2022/04/19 00:08:16;;;;;;;7.28;4.03;;;15.70;65.10;;;;;;5132713;27;20118;-66
2022/04/19 00:10:43;;;;;;;7.40;4.38;;;15.60;65.30;;;;;;5131785;27;20019;-66
2022/04/19 00:13:10;;;;;;;8.85;4.50;;;15.60;65.30;;;;;;5131897;27;20075;-66
2022/04/19 00:15:38;;;;;;;8.93;4.50;;;15.60;65.30;;;;;;5132472;27;20035;-66
2022/04/19 00:18:05;;;;;;;10.65;5.38;;;15.50;65.30;;;;;;5131633;27;20027;-66
2022/04/19 00:20:33;;;;;;;16.42;5.10;;;15.50;65.40;;;;;;5132114;27;20031;-66
2022/04/19 00:22:59;;;;;;;8.63;4.28;;;15.40;65.50;;;;;;5132196;27;20035;-66
2022/04/19 00:25:25;;;;;;;7.88;4.82;;;15.40;65.60;;;;;;5131368;27;20042;-66
2022/04/19 00:27:51;;;;;;;7.85;4.40;;;15.40;65.70;;;;;;5132061;27;20551;-66
2022/04/19 00:30:16;;;;;;;12.40;5.45;;;15.30;65.80;;;;;;5132423;27;20027;-66
2022/04/19 00:32:42;;;;;;;10.52;5.43;;;15.30;65.80;;;;;;5128335;27;20447;-66
2022/04/19 00:35:10;;;;;;;9.23;5.50;;;15.20;65.90;;;;;;5113791;27;20072;-66
2022/04/19 00:37:41;;;;;;;10.68;5.03;;;15.20;66.00;;;;;;5112517;27;20045;-66
2022/04/19 00:40:09;;;;;;;11.80;5.50;;;15.20;66.30;;;;;;5113896;27;20023;-67
2022/04/19 00:42:35;;;;;;;13.23;5.75;;;15.10;66.50;;;;;;5131718;27;20130;-66
2022/04/19 00:45:04;;;;;;;9.95;5.70;;;15.10;66.60;;;;;;5131222;27;20035;-65
2022/04/19 00:47:32;;;;;;;9.23;4.80;;;15.00;66.90;;;;;;5131628;27;20450;-66
2022/04/19 00:50:02;;;;;;;8.95;4.85;;;15.00;66.90;;;;;;5113445;28;20023;-66
2022/04/19 00:52:32;;;;;;;8.88;5.05;;;15.00;67.00;;;;;;5112814;28;20038;-66
2022/04/19 00:55:01;;;;;;;9.48;5.07;;;15.00;67.30;;;;;;5113125;28;20027;-66
2022/04/19 00:57:30;;;;;;;7.50;4.30;;;15.00;67.40;;;;;;5113601;28;20031;-66
2022/04/19 00:59:57;;;;;;;12.45;5.35;;;14.90;67.60;;;;;;5112552;28;20027;-66
2022/04/19 01:02:26;;;;;;;12.07;4.90;;;14.90;67.70;;;;;;5113242;28;20110;-66
2022/04/19 01:04:55;;;;;;;12.13;5.25;;;14.80;67.80;;;;;;5112822;28;20047;-66
2022/04/19 01:07:22;;;;;;;9.75;5.45;;;14.80;68.00;;;;;;5131130;28;20360;-66
2022/04/19 01:09:49;;;;;;;12.15;5.47;;;14.80;68.30;;;;;;5113079;28;20015;-66
2022/04/19 01:15:05;;;;;;;13.20;5.25;;;14.70;68.40;;;;;;5118674;28;20031;-66
2022/04/19 01:17:45;;;;;;;7.72;4.72;;;14.70;68.50;;;;;;5113035;28;20031;-66
2022/04/19 01:20:15;;;;;;;8.10;4.40;;;14.70;68.50;;;;;;5112439;28;20537;-66
2022/04/19 01:22:42;;;;;;;8.52;4.60;;;14.60;68.50;;;;;;5107101;28;20031;-66
2022/04/19 01:25:10;;;;;;;8.90;4.72;;;14.70;68.60;;;;;;5117186;27;20027;-66
2022/04/19 01:27:38;;;;;;;10.48;4.93;;;14.60;68.60;;;;;;5116151;27;20065;-66
2022/04/19 01:30:09;;;;;;;8.65;4.85;;;14.60;68.70;;;;;;5104480;27;20466;-66
2022/04/19 01:32:36;;;;;;;8.20;4.60;;;14.50;68.70;;;;;;5114469;27;20088;-66
2022/04/19 01:35:15;;;;;;;13.80;4.75;;;14.50;68.50;;;;;;5116382;27;20015;-66
2022/04/19 01:37:48;;;;;;;8.52;5.18;;;14.40;68.50;;;;;;5116842;27;20119;-66
2022/04/19 01:40:18;;;;;;;10.40;5.22;;;14.40;68.60;;;;;;5117193;27;20185;-66
2022/04/19 01:43:00;;;;;;;9.07;4.47;;;14.40;68.70;;;;;;5115978;27;20079;-66
2022/04/19 01:45:34;;;;;;;9.68;5.47;;;14.40;68.90;;;;;;5114674;27;20035;-66
2022/04/19 01:48:03;;;;;;;10.07;5.03;;;14.30;69.20;;;;;;5106026;27;20031;-66
2022/04/19 01:50:32;;;;;;;12.63;5.47;;;14.30;69.50;;;;;;5116555;27;20035;-66
2022/04/19 01:53:01;;;;;;;8.63;5.00;;;14.20;69.70;;;;;;5135550;27;20027;-66
2022/04/19 01:55:33;;;;;;;11.02;5.78;;;14.20;70.00;;;;;;5115754;27;20386;-66
2022/04/19 01:58:05;;;;;;;10.80;5.13;;;14.20;70.10;;;;;;5116483;27;20035;-66
2022/04/19 02:00:38;;;;;;;11.57;4.82;;;14.10;70.30;;;;;;5116678;27;20052;-66
2022/04/19 02:03:06;;;;;;;9.27;5.22;;;14.10;70.50;;;;;;5115508;27;20030;-66
2022/04/19 02:05:32;;;;;;;11.15;5.63;;;14.10;70.70;;;;;;5116083;27;20031;-66
2022/04/19 02:08:01;;;;;;;11.02;5.38;;;14.10;70.90;;;;;;5113978;27;20046;-66
2022/04/19 02:10:29;;;;;;;7.88;4.63;;;14.00;71.00;;;;;;5105066;27;20023;-66
2022/04/19 02:12:55;;;;;;;12.07;5.32;;;13.90;71.00;;;;;;5107712;27;20056;-66
2022/04/19 02:15:35;;;;;;;9.07;5.07;;;13.90;71.10;;;;;;5120186;27;20042;-66
2022/04/19 02:18:20;;;;;;;9.90;4.72;;;13.90;71.20;;;;;;5113855;27;20053;-66
2022/04/19 02:20:46;;;;;;;10.13;4.80;;;13.80;71.30;;;;;;5115934;27;20023;-66
2022/04/19 02:23:15;;;;;;;7.75;4.97;;;13.80;71.40;;;;;;5133735;27;20023;-66
2022/04/19 02:25:42;;;;;;;9.25;4.35;;;13.80;71.50;;;;;;5111557;28;20031;-66
2022/04/19 02:28:10;;;;;;;9.25;4.90;;;13.70;71.60;;;;;;5107291;28;20126;-66
2022/04/19 02:30:40;;;;;;;12.68;5.55;;;13.70;71.80;;;;;;5114052;27;20023;-66
2022/04/19 02:33:11;;;;;;;8.93;4.15;;;13.70;71.90;;;;;;5110593;27;20034;-66
2022/04/19 02:35:38;;;;;;;10.80;4.95;;;13.70;72.00;;;;;;5114483;27;20029;-66
2022/04/19 02:38:05;;;;;;;10.02;4.38;;;13.60;72.00;;;;;;5115191;27;20039;-66
2022/04/19 02:40:37;;;;;;;8.35;4.70;;;13.60;72.10;;;;;;5115917;27;20030;-66
2022/04/19 02:43:04;;;;;;;11.07;5.30;;;13.60;72.20;;;;;;5115541;27;20661;-66
2022/04/19 02:45:30;;;;;;;8.30;4.50;;;13.60;72.30;;;;;;5113198;27;20053;-66
2022/04/19 02:48:04;;;;;;;9.88;4.60;;;13.60;72.30;;;;;;5115476;27;20096;-66
2022/04/19 02:50:39;;;;;;;10.68;5.35;;;13.60;72.40;;;;;;5102238;27;20469;-66
2022/04/19 02:53:04;;;;;;;;;;;13.60;72.50;;;;;;5115790;27;20038;-66
2022/04/19 02:55:32;;;;;;;9.45;4.70;;;13.60;72.40;;;;;;5095737;28;19911;-66
2022/04/19 02:57:58;;;;;;;8.65;4.75;;;13.50;72.30;;;;;;5103256;27;20019;-67
2022/04/19 03:00:24;;;;;;;10.18;5.05;;;13.50;72.50;;;;;;5094330;28;20035;-67
2022/04/19 03:02:51;;;;;;;10.85;5.80;;;13.50;72.60;;;;;;5095281;28;20059;-67
2022/04/19 03:05:18;;;;;;;9.80;5.47;;;13.50;72.80;;;;;;5094384;28;20123;-67
2022/04/19 03:07:44;;;;;;;10.45;5.45;;;13.40;72.80;;;;;;5098211;27;20061;-67
2022/04/19 03:10:10;;;;;;;10.10;5.13;;;13.40;72.90;;;;;;5095144;28;20062;-67
2022/04/19 03:12:36;;;;;;;11.98;5.30;;;13.40;72.90;;;;;;5103986;28;20063;-67
2022/04/19 03:15:11;;;;;;;10.30;5.18;;;13.40;73.00;;;;;;5106831;27;20038;-67
2022/04/19 03:17:39;;;;;;;9.95;4.97;;;13.40;73.10;;;;;;5098373;28;20387;-67
2022/04/19 03:20:08;;;;;;;11.00;5.45;;;13.30;73.10;;;;;;5113106;27;20019;-67
2022/04/19 03:28:10;;;;;;;11.48;5.20;;;13.30;73.40;;;;;;5101467;27;20119;-66
2022/04/19 03:30:37;;;;;;;15.20;5.45;;;13.20;73.50;;;;;;5115039;27;20050;-66
2022/04/19 03:33:03;;;;;;;10.88;5.53;;;13.20;73.60;;;;;;5114968;27;20027;-66
2022/04/19 03:35:29;;;;;;;11.45;5.68;;;13.10;73.70;;;;;;5114050;27;20367;-67
2022/04/19 03:37:54;;;;;;;12.13;5.95;;;13.10;73.80;;;;;;5115085;27;20031;-66
2022/04/19 03:40:20;;;;;;;9.23;4.82;;;13.10;74.00;;;;;;5114217;27;20114;-69
2022/04/19 03:42:46;;;;;;;11.80;5.47;;;13.10;74.20;;;;;;5114726;27;20027;-66
2022/04/19 03:45:12;;;;;;;12.68;5.85;;;13.10;74.30;;;;;;5131778;27;20031;-66
2022/04/19 03:47:37;;;;;;;10.88;5.53;;;13.10;74.40;;;;;;5100901;27;20464;-68
2022/04/19 03:50:07;;;;;;;9.77;5.25;;;13.00;74.30;;;;;;5132859;27;20020;-66
2022/04/19 03:52:34;;;;;;;11.32;5.65;;;13.00;74.50;;;;;;5114526;27;20058;-66
2022/04/19 03:55:00;;;;;;;16.50;6.07;;;13.00;74.50;;;;;;5113727;27;20083;-66
2022/04/19 03:57:29;;;;;;;12.63;5.80;;;12.90;74.60;;;;;;5110019;27;20027;-67
2022/04/19 03:59:54;;;;;;;13.90;6.07;;;12.90;74.70;;;;;;5129470;27;20031;-66
2022/04/19 04:02:26;;;;;;;17.88;5.65;;;12.90;74.80;;;;;;5111663;27;20123;-65
2022/04/19 04:04:52;;;;;;;13.82;6.32;;;12.90;74.80;;;;;;5130941;27;20043;-65
2022/04/19 04:07:19;;;;;;;13.60;5.72;;;12.90;74.90;;;;;;5112543;27;20038;-66
2022/04/19 04:09:45;;;;;;;13.48;6.22;;;12.90;75.00;;;;;;5112472;27;20019;-65
2022/04/19 04:12:12;;;;;;;16.05;6.32;;;12.80;75.10;;;;;;5112518;27;20023;-65
2022/04/19 04:14:40;;;;;;;14.50;6.05;;;12.80;75.20;;;;;;5112792;27;20027;-66
2022/04/19 04:17:06;;;;;;;15.98;5.90;;;12.80;75.30;;;;;;5110887;27;20386;-65
2022/04/19 04:19:32;;;;;;;11.38;6.15;;;12.80;75.40;;;;;;5112772;27;20024;-66
2022/04/19 04:22:01;;;;;;;16.63;6.00;;;12.80;75.40;;;;;;5111290;27;20039;-66
2022/04/19 04:24:27;;;;;;;11.43;5.88;;;12.70;75.50;;;;;;5131880;27;20377;-65
2022/04/19 04:26:54;;;;;;;11.82;5.20;;;12.70;75.60;;;;;;5113613;27;20039;-65
2022/04/19 04:29:22;;;;;;;11.43;5.57;;;12.70;75.80;;;;;;5113288;27;20026;-65
2022/04/19 04:31:50;;;;;;;13.05;6.35;;;12.70;75.80;;;;;;5113377;27;20111;-66
2022/04/19 04:34:17;;;;;;;12.48;5.30;;;12.60;75.90;;;;;;5113651;27;20152;-65
2022/04/19 04:36:44;;;;;;;13.35;6.68;;;12.60;76.00;;;;;;5112846;27;20107;-66
2022/04/19 04:39:15;;;;;;;12.70;5.72;;;12.60;76.10;;;;;;5113446;28;20031;-66
2022/04/19 04:42:02;;;;;;;14.38;6.28;;;12.60;76.30;;;;;;5130137;27;20063;-66
2022/04/19 04:44:27;;;;;;;12.90;6.00;;;12.50;76.30;;;;;;5111032;28;20088;-66
2022/04/19 04:49:39;;;;;;;14.48;6.35;;;12.50;76.50;;;;;;5111278;27;20031;-66
2022/04/19 04:52:09;;;;;;;11.38;6.15;;;12.50;76.60;;;;;;5110788;28;20027;-67
2022/04/19 04:54:40;;;;;;;12.70;6.60;;;12.40;76.70;;;;;;5109601;28;20019;-67
2022/04/19 04:57:07;;;;;;;13.98;5.35;;;12.40;76.90;;;;;;5108444;28;20032;-68
2022/04/19 04:59:33;;;;;;;15.57;5.95;;;12.40;77.00;;;;;;5106656;28;20371;-67
2022/04/19 05:02:00;;;;;;;17.38;6.22;;;12.40;77.20;;;;;;5104315;28;20028;-67
2022/04/19 05:04:27;;;;;;;12.38;5.95;;;12.30;77.20;;;;;;5110061;28;20030;-67
2022/04/19 05:06:53;;;;;;;12.82;5.88;;;12.30;77.40;;;;;;5108794;28;20043;-67
2022/04/19 05:09:20;;;;;;;12.98;5.90;;;12.30;77.50;;;;;;5109767;28;20023;-68
2022/04/19 05:11:46;;;;;;;14.13;7.22;;;12.30;77.60;;;;;;5111764;28;20031;-69
2022/04/19 05:14:13;;;;;;;17.40;6.35;;;12.30;77.70;;;;;;5113114;28;20113;-66
2022/04/19 05:16:39;;;;;;;14.48;6.32;;;12.30;77.80;;;;;;5098740;28;20031;-66
2022/04/19 05:19:05;;;;;;;17.00;6.88;;;12.30;77.80;;;;;;5123847;28;20034;-65
2022/04/19 05:21:38;;;;;;;11.10;5.40;;;12.30;78.00;;;;;;5110491;28;20031;-65
2022/04/19 05:24:05;;;;;;;13.93;6.53;;;12.30;78.00;;;;;;5111024;28;20030;-64
2022/04/19 05:26:31;;;;;;;14.80;6.72;;;12.30;78.20;;;;;;5125079;28;20061;-67
2022/04/19 05:29:00;;;;;;;22.80;6.55;;;12.20;78.30;;;;;;5109712;28;20027;-66
2022/04/19 05:31:25;;;;;;;14.63;6.03;;;12.30;78.40;;;;;;5109354;28;20382;-66
2022/04/19 05:33:53;;;;;;;11.07;5.72;;;12.20;78.50;;;;;;5109584;28;20023;-65
2022/04/19 05:36:19;;;;;;;10.02;5.57;;;12.20;78.60;;;;;;5110430;28;20054;-65
2022/04/19 05:38:45;;;;;;;11.90;5.45;;;12.30;78.90;;;;;;5110455;28;20205;-66
2022/04/19 05:41:11;;;;;;;13.38;5.63;;;12.30;79.00;;;;;;5109853;28;20428;-64
2022/04/19 05:43:38;;;;;;;11.07;4.95;;;12.30;79.30;;;;;;5108445;28;20030;-67
2022/04/19 05:46:04;;;;;;;11.25;6.13;;;12.20;79.30;;;;;;5106433;28;20052;-68
2022/04/19 05:48:30;;;;;;;12.48;6.10;;;12.20;79.50;;;;;;5105948;28;20042;-69
2022/04/19 05:50:56;;;;;;;12.70;4.88;;;12.20;79.60;;;;;;5107837;28;20054;-65
2022/04/19 05:53:22;;;;;;;12.32;5.45;;;12.20;79.80;;;;;;5109267;28;20387;-66
2022/04/19 05:55:47;;;;;;;11.20;5.32;;;12.30;79.90;;;;;;5108828;28;20471;-66
2022/04/19 05:58:14;;;;;;;12.07;5.10;;;12.30;79.90;;;;;;5097182;28;20033;-67
2022/04/19 06:00:40;;;;;;;18.85;6.10;;;12.30;79.90;;;;;;5109675;28;20122;-66
2022/04/19 06:05:50;;;;;;;11.70;5.40;;;12.40;80.00;;;;;;5111027;28;20410;-66
2022/04/19 06:08:18;;;;;;;14.77;5.72;;;12.40;80.00;;;;;;5108452;28;20063;-66
2022/04/19 06:10:50;;;;;;;14.48;6.40;;;12.40;80.20;;;;;;5098193;28;20030;-66
2022/04/19 06:13:16;;;;;;;11.85;5.88;;;12.50;80.30;;;;;;5112512;28;20395;-66
2022/04/19 06:15:43;;;;;;;15.05;6.20;;;12.50;80.30;;;;;;5098867;28;20364;-66
2022/04/19 06:18:09;;;;;;;13.98;6.18;;;12.50;80.30;;;;;;5112318;28;20065;-67
2022/04/19 06:20:45;;;;;;;12.52;5.50;;;12.60;80.50;;;;;;5112775;28;20786;-66
2022/04/19 06:23:11;;;;;;;12.95;5.80;;;12.60;80.50;;;;;;5111932;28;20051;-66
2022/04/19 06:25:38;;;;;;;12.85;5.97;;;12.70;80.80;;;;;;5112776;28;20429;-66
2022/04/19 06:28:04;;;;;;;8.40;5.05;;;12.60;81.00;;;;;;5112773;28;20034;-66
2022/04/19 06:30:41;;;;;;;12.00;5.85;;;12.70;81.10;;;;;;5112084;28;20505;-66
2022/04/19 06:33:07;;;;;;;13.40;5.30;;;12.70;81.20;;;;;;5112823;28;20028;-66
2022/04/19 06:35:34;;;;;;;12.60;5.15;;;12.70;81.40;;;;;;5101400;28;20032;-66
2022/04/19 06:37:59;;;;;;;14.68;5.25;;;12.80;81.40;;;;;;5111978;28;20130;-66
2022/04/19 06:40:25;;;;;;;13.38;5.10;;;12.80;81.40;;;;;;5112353;28;20028;-66
2022/04/19 06:42:51;;;;;;;13.57;5.20;;;12.80;81.30;;;;;;5114223;28;20027;-66
2022/04/19 06:45:19;;;;;;;12.65;4.90;;;12.90;81.20;;;;;;5116688;27;20447;-66
2022/04/19 06:48:05;;;;;;;7.70;3.92;;;12.90;81.10;;;;;;5123298;27;20051;-66
2022/04/19 06:50:34;;;;;;;9.25;3.97;;;13.00;81.00;;;;;;5114798;27;20019;-66
2022/04/19 06:53:09;;;;;;;7.25;3.28;;;13.00;81.00;;;;;;5115751;27;20031;-66
2022/04/19 06:55:53;;;;;;;10.32;4.25;;;13.10;80.90;;;;;;5105128;27;20378;-66
2022/04/19 06:58:20;;;;;;;9.93;4.47;;;13.10;80.50;;;;;;5132619;27;20034;-66
2022/04/19 07:00:48;;;;;;;6.35;2.40;;;13.20;80.60;;;;;;5115653;27;20043;-66
2022/04/19 07:03:14;;;;;;;7.05;3.38;;;13.10;80.60;;;;;;5111714;28;20043;-66
2022/04/19 07:06:00;;;;;;;7.63;3.83;;;13.20;80.20;;;;;;5108126;27;20031;-66
2022/04/19 07:08:26;;;;;;;6.80;3.80;;;13.30;80.20;;;;;;5115286;27;20070;-66
2022/04/19 07:10:52;;;;;;;7.82;3.80;;;13.30;79.60;;;;;;5133386;27;20490;-67
2022/04/19 07:13:44;;;;;;;8.48;3.50;;;13.30;78.90;;;;;;5105811;27;20038;-66
2022/04/19 07:16:17;;;;;;;7.05;3.38;;;13.40;78.40;;;;;;5115106;27;20019;-66
2022/04/19 07:18:42;;;;;;;5.75;3.03;;;13.40;78.40;;;;;;5109489;27;20126;-66
2022/04/19 07:26:37;;;;;;;6.63;2.53;;;13.50;78.40;;;;;;5108328;28;20780;-66
2022/04/19 07:29:13;;;;;;;5.00;2.28;;;13.60;77.90;;;;;;5107656;27;20126;-66
2022/04/19 07:31:43;;;;;;;5.38;2.65;;;13.60;78.60;;;;;;5115006;27;20031;-66
2022/04/19 07:34:24;;;;;;;10.05;2.38;;;13.60;78.60;;;;;;5114010;27;20138;-66
2022/04/19 07:36:49;;;;;;;3.60;2.03;;;13.70;78.80;;;;;;5115060;27;20019;-66
2022/04/19 07:39:15;;;;;;;4.93;2.50;;;13.70;78.90;;;;;;5133497;27;20046;-66
2022/04/19 07:41:45;;;;;;;3.78;2.15;;;13.70;77.80;;;;;;5114325;27;20026;-66
2022/04/19 07:44:11;;;;;;;3.90;1.80;;;13.80;77.80;;;;;;5113478;27;20023;-67
2022/04/19 07:46:37;;;;;;;2.10;1.42;;;13.80;78.00;;;;;;5112685;27;20397;-66
2022/04/19 07:49:06;;;;;;;1.73;1.20;;;13.80;79.10;;;;;;5132873;27;20386;-66
2022/04/19 07:51:32;;;;;;;3.30;1.20;;;13.90;79.10;;;;;;5114403;27;20454;-66
2022/04/19 07:53:58;;;;;;;4.18;2.20;;;13.90;78.80;;;;;;5114263;27;20050;-67
2022/04/19 07:56:24;;;;;;;3.05;1.60;;;13.90;78.70;;;;;;5101827;27;20471;-66
2022/04/19 07:58:52;;;;;;;3.08;1.70;;;14.00;78.00;;;;;;5114428;27;20083;-66
2022/04/19 08:01:19;;;;;;;3.13;1.38;;;14.00;78.00;;;;;;5113556;27;20027;-66
2022/04/19 08:03:46;;;;;;;3.00;1.60;;;14.00;77.80;;;;;;5114528;27;20069;-66
2022/04/19 08:06:12;;;;;;;3.55;1.67;;;14.00;77.30;;;;;;5114370;27;20478;-66
2022/04/19 08:08:42;;;;;;;4.75;2.25;;;14.00;77.60;;;;;;5113813;27;20538;-66
2022/04/19 08:11:08;;;;;;;7.85;2.47;;;14.10;77.50;;;;;;5113862;27;20117;-66
2022/04/19 08:13:34;;;;;;;2.33;1.15;;;14.20;77.20;;;;;;5114452;27;20537;-66
2022/04/19 08:16:00;;;;;;;4.00;2.13;;;14.20;78.00;;;;;;5132098;27;20050;-66
2022/04/19 08:18:26;;;;;;;5.30;1.50;;;14.20;77.50;;;;;;5108553;28;20134;-66
2022/04/19 08:20:53;;;;;;;1.95;1.17;;;14.30;78.20;;;;;;5106509;27;20027;-66
2022/04/19 08:23:20;;;;;;;1.25;1.08;;;14.30;78.90;;;;;;5108748;28;20020;-66
2022/04/19 08:25:53;;;;;;;2.05;1.38;;;14.40;80.30;;;;;;5107220;27;20496;-66
2022/04/19 08:28:20;;;;;;;4.70;1.40;;;14.40;80.50;;;;;;5113737;27;20474;-66
2022/04/19 08:30:46;;;;;;;0.63;0.63;;;14.40;80.30;;;;;;5113141;27;20020;-67
2022/04/19 08:33:16;;;;;;;3.00;1.40;;;14.40;81.30;;;;;;5113600;27;20177;-66
2022/04/19 08:35:41;;;;;;;2.22;1.27;;;14.40;80.00;;;;;;5113757;27;20110;-66
2022/04/19 08:38:07;;;;;;;3.08;1.60;;;14.40;79.60;;;;;;5113354;28;20027;-66
2022/04/19 08:40:34;;;;;;;2.20;1.15;;;14.50;79.10;;;;;;5113679;27;20031;-67
2022/04/19 08:43:06;;;;;;;3.72;1.38;;;14.50;79.90;;;;;;5113356;27;20027;-66
2022/04/19 08:45:37;;;;;;;1.52;0.93;;;14.50;80.50;;;;;;5131927;27;20055;-67
2022/04/19 08:48:07;;;;;;;1.30;1.20;;;14.60;81.00;;;;;;5132310;27;20123;-67
2022/04/19 08:50:32;;;;;;;3.15;1.88;;;14.60;81.40;;;;;;5130847;27;20107;-66
2022/04/19 08:58:29;;;;;;;6.95;2.15;;;14.80;78.70;;;;;;5118439;28;20035;-68
2022/04/19 09:00:55;;;;;;;3.85;2.53;;;14.90;78.40;;;;;;5125657;28;20027;-68
2022/04/19 09:03:20;;;;;;;4.45;1.90;;;14.80;78.10;;;;;;5123995;28;20035;-68
2022/04/19 09:05:52;;;;;;;4.57;1.50;;;14.90;78.80;;;;;;5131446;28;20023;-68
2022/04/19 09:08:19;;;;;;;5.60;2.00;;;15.00;78.70;;;;;;5126344;28;20068;-69
2022/04/19 09:10:45;;;;;;;4.10;2.45;;;15.00;78.80;;;;;;5131981;28;20039;-67
2022/04/19 09:13:21;;;;;;;1.15;0.98;;;15.00;77.30;;;;;;5118108;28;20479;-68
2022/04/19 09:15:47;;;;;;;5.05;2.50;;;15.10;78.70;;;;;;5131827;28;20038;-68
2022/04/19 09:18:30;;;;;;;3.83;2.13;;;15.10;77.20;;;;;;5130273;28;20031;-68
2022/04/19 09:21:01;;;;;;;4.55;2.15;;;15.20;77.10;;;;;;5132088;28;20339;-68
2022/04/19 09:23:29;;;;;;;4.95;2.65;;;15.20;77.50;;;;;;5117993;28;20478;-67
2022/04/19 09:26:00;;;;;;;4.60;2.63;;;15.20;76.50;;;;;;5130820;28;20475;-67
2022/04/19 09:28:27;;;;;;;4.22;2.10;;;15.30;75.70;;;;;;5129303;28;20849;-67
2022/04/19 09:30:58;;;;;;;5.50;2.05;;;15.20;76.20;;;;;;5130196;28;20031;-68
2022/04/19 09:33:29;;;;;;;5.10;2.92;;;15.30;75.90;;;;;;5128687;28;20486;-68
2022/04/19 09:35:57;;;;;;;3.45;2.03;;;15.40;76.70;;;;;;5131387;28;20020;-68
2022/04/19 09:38:43;;;;;;;5.90;2.33;;;15.40;77.70;;;;;;5130553;28;20038;-67
2022/04/19 09:41:13;;;;;;;2.55;2.03;;;15.40;78.60;;;;;;5128984;28;20042;-68
2022/04/19 09:43:39;;;;;;;3.60;1.88;;;15.50;79.00;;;;;;5131813;28;20078;-68
2022/04/19 09:46:06;;;;;;;3.58;2.22;;;15.50;79.70;;;;;;5131515;27;20051;-73
2022/04/19 09:48:33;;;;;;;4.10;2.15;;;15.50;79.10;;;;;;5135378;27;20243;-69
2022/04/19 09:51:06;;;;;;;4.57;1.55;;;15.50;79.00;;;;;;5135810;27;20035;-67
2022/04/19 09:53:38;;;;;;;2.45;1.48;;;15.60;79.10;;;;;;5121521;27;20035;-68
2022/04/19 09:56:08;;;;;;;3.73;1.63;;;15.60;80.40;;;;;;5133945;27;20063;-68
2022/04/19 09:58:34;;;;;;;3.95;1.75;;;15.60;80.40;;;;;;5134035;27;20118;-68
2022/04/19 10:01:00;;;;;;;2.28;1.27;;;15.70;80.30;;;;;;5133392;27;20431;-67
2022/04/19 10:08:58;;;;;;;7.57;3.22;;;15.80;78.50;;;;;;5133174;27;20382;-67
2022/04/19 10:11:26;;;;;;;5.38;2.78;;;15.80;77.10;;;;;;5134500;27;20097;-68
2022/04/19 10:13:54;;;;;;;6.50;2.38;;;15.80;76.50;;;;;;5131527;27;20015;-67
2022/04/19 10:16:21;;;;;;;6.20;2.55;;;15.90;75.60;;;;;;5133139;27;20027;-67
2022/04/19 10:18:46;;;;;;;3.55;1.67;;;15.90;76.90;;;;;;5134616;27;20208;-67
2022/04/19 10:21:19;;;;;;;6.13;2.55;;;15.90;78.20;;;;;;5134720;27;20565;-67
2022/04/19 10:23:46;;;;;;;4.57;2.42;;;15.90;76.60;;;;;;5135127;27;20471;-67
2022/04/19 10:26:20;;;;;;;3.95;1.92;;;16.00;77.80;;;;;;5134826;27;20051;-71
2022/04/19 10:28:47;;;;;;;4.82;2.10;;;16.00;76.80;;;;;;5134335;27;20126;-70
2022/04/19 10:31:22;;;;;;;2.13;1.40;;;16.10;78.00;;;;;;5134398;27;20027;-66
2022/04/19 10:33:51;;;;;;;4.65;2.30;;;16.10;78.60;;;;;;5134767;27;20115;-67
2022/04/19 10:36:18;;;;;;;3.40;1.33;;;16.10;77.90;;;;;;5134228;27;20023;-67
2022/04/19 10:38:46;;;;;;;2.40;1.20;;;16.10;79.50;;;;;;5134588;27;20031;-68
2022/04/19 10:41:44;;;;;;;3.17;1.40;;;16.10;79.40;;;;;;5134640;27;20035;-68
2022/04/19 10:44:43;;;;;;;4.78;2.20;;;16.20;79.60;;;;;;5133787;27;20040;-68
2022/04/19 10:47:17;;;;;;;7.63;2.45;;;16.20;79.50;;;;;;5117811;27;20035;-69
2022/04/19 10:49:56;;;;;;;5.88;2.60;;;16.20;79.10;;;;;;5133996;27;20023;-68
2022/04/19 10:52:37;;;;;;;3.50;2.10;;;16.20;77.90;;;;;;5121331;27;20402;-67
2022/04/19 10:55:19;;;;;;;4.78;1.45;;;16.30;79.40;;;;;;5133809;27;20466;-68
2022/04/19 11:00:51;;;;;;;2.95;1.38;;;16.30;79.90;;;;;;5133817;27;20411;-68
2022/04/19 11:03:33;;;;;;;5.80;2.60;;;16.30;81.30;;;;;;5131756;27;20095;-67
2022/04/19 11:06:02;;;;;;;3.50;2.30;;;16.30;78.80;;;;;;5133814;27;20079;-68
2022/04/19 11:08:30;;;;;;;4.97;1.90;;;16.40;79.80;;;;;;5133546;27;20051;-68
2022/04/19 11:10:56;;;;;;;2.78;1.80;;;16.40;78.40;;;;;;5125514;27;20054;-68
2022/04/19 11:13:26;;;;;;;6.82;2.40;;;16.40;78.40;;;;;;5128769;27;20498;-68
2022/04/19 11:16:01;;;;;;;3.83;2.35;;;16.40;77.90;;;;;;5132110;27;20027;-68
2022/04/19 11:18:29;;;;;;;3.85;2.42;;;16.50;77.90;;;;;;5125457;27;20039;-67
2022/04/19 11:20:58;;;;;;;4.40;1.98;;;16.60;78.20;;;;;;5125572;27;20152;-67
2022/04/19 11:23:25;;;;;;;2.33;1.70;;;16.60;77.90;;;;;;5113403;27;20035;-68
2022/04/19 11:25:53;;;;;;;4.38;2.30;;;16.60;79.30;;;;;;5132011;27;20039;-68
2022/04/19 11:28:21;;;;;;;1.35;0.98;;;16.70;78.60;;;;;;5131847;27;20118;-68
2022/04/19 11:30:50;;;;;;;3.88;1.70;;;16.70;80.00;;;;;;5133037;27;20035;-68
2022/04/19 11:33:34;;;;;;;1.10;1.00;;;16.70;78.80;;;;;;5129010;27;20038;-68
2022/04/19 11:36:08;;;;;;;9.55;2.55;;;16.70;80.30;;;;;;5132486;27;20475;-68
2022/04/19 11:38:46;;;;;;;2.95;1.50;;;16.80;78.10;;;;;;5132295;27;20038;-67
2022/04/19 11:46:53;;;;;;;2.47;1.65;;;16.90;78.90;;;;;;5130327;27;20099;-67
2022/04/19 11:49:18;;;;;;;4.95;2.20;;;16.90;80.00;;;;;;5129766;27;20039;-67
2022/04/19 11:52:11;;;;;;;3.92;1.83;;;17.00;78.00;;;;;;5130140;27;20027;-67
2022/04/19 11:54:38;;;;;;;4.70;2.45;;;17.00;78.10;;;;;;5119109;27;20042;-67
2022/04/19 11:57:08;;;;;;;6.20;2.30;;;17.00;77.80;;;;;;5128562;27;20023;-67
2022/04/19 11:59:42;;;;;;;3.90;2.25;;;17.10;76.70;;;;;;5131600;27;20042;-67
2022/04/19 12:02:20;;;;;;;;;;;17.10;77.70;;;;;;5129151;27;20031;-67
2022/04/19 12:04:56;;;;;;;3.15;1.30;;;17.20;79.70;;;;;;5124759;27;19908;-67
2022/04/19 12:07:25;;;;;;;4.20;2.03;;;17.10;79.80;;;;;;5128682;27;20084;-68
2022/04/19 12:09:51;;;;;;;3.40;2.13;;;17.10;78.50;;;;;;5131058;27;20034;-67
2022/04/19 12:12:19;;;;;;;1.95;1.42;;;17.20;78.00;;;;;;5133020;27;20146;-67
2022/04/19 12:14:52;;;;;;;5.13;2.40;;;17.20;77.80;;;;;;5130082;27;20081;-66
2022/04/19 12:17:22;;;;;;;6.00;2.47;;;17.30;77.00;;;;;;5132205;27;20042;-66
2022/04/19 12:19:59;;;;;;;2.67;1.23;;;17.40;76.80;;;;;;5132265;27;20394;-66
2022/04/19 12:22:24;;;;;;;5.15;2.08;;;17.40;79.00;;;;;;5132098;27;20031;-66
2022/04/19 12:24:58;;;;;;;6.05;2.15;;;17.40;77.40;;;;;;5132033;27;20019;-66
2022/04/19 12:27:27;;;;;;;6.07;2.45;;;17.50;76.00;;;;;;5131006;27;20139;-66
2022/04/19 12:30:01;;;;;;;4.35;1.92;;;17.50;76.50;;;;;;5117958;27;20023;-66
2022/04/19 12:32:48;;;;;;;6.00;2.83;;;17.60;77.80;;;;;;5131999;27;20027;-66
2022/04/19 12:35:14;;;;;;;2.92;2.05;;;17.60;76.00;;;;;;5131962;27;20141;-66
2022/04/19 12:37:40;;;;;;;6.60;2.80;;;17.60;76.60;;;;;;5132258;27;20412;-66
2022/04/19 12:40:07;;;;;;;4.13;2.63;;;17.70;75.40;;;;;;5131772;27;20050;-66
2022/04/19 12:42:56;;;;;;;4.35;2.60;;;17.70;74.90;;;;;;5130698;27;20050;-66
2022/04/19 12:45:21;;;;;;;5.05;2.45;;;17.80;74.90;;;;;;5131484;27;20061;-67
2022/04/19 12:47:50;;;;;;;3.35;2.03;;;17.80;74.80;;;;;;5131383;27;20035;-67
2022/04/19 12:50:20;;;;;;;7.35;2.90;;;17.80;74.00;;;;;;5130010;27;20031;-67
2022/04/19 12:52:47;;;;;;;4.18;2.20;;;17.80;73.90;;;;;;5128201;27;20027;-67
2022/04/19 12:55:15;;;;;;;5.20;2.50;;;17.80;75.80;;;;;;5131874;27;20031;-66
2022/04/19 12:57:45;;;;;;;3.85;2.40;;;17.80;76.30;;;;;;5129211;27;20031;-66
2022/04/19 13:00:11;;;;;;;6.90;2.92;;;17.80;75.30;;;;;;5130565;28;20112;-66
2022/04/19 13:02:43;;;;;;;9.63;1.13;;;17.80;76.10;;;;;;5129856;28;20684;-65
2022/04/19 13:05:09;;;;;;;6.03;2.88;;;17.90;78.20;;;;;;5129744;28;20071;-66
2022/04/19 13:13:06;;;;;;;7.10;3.42;;;17.90;77.50;;;;;;5126430;28;20518;-66
2022/04/19 13:15:32;;;;;;;4.43;2.10;;;18.00;76.80;;;;;;5129547;28;20031;-66
2022/04/19 13:17:58;;;;;;;7.53;3.15;;;17.90;76.60;;;;;;5129284;28;20023;-66
2022/04/19 13:20:24;;;;;;;3.05;1.98;;;18.00;75.50;;;;;;5132893;27;20363;-66
2022/04/19 13:22:50;;;;;;;5.93;2.65;;;18.00;77.50;;;;;;5133576;27;20038;-66
2022/04/19 13:25:16;;;;;;;6.47;2.35;;;18.00;75.60;;;;;;5133811;27;20080;-66
2022/04/19 13:27:42;;;;;;;2.53;1.55;;;18.00;74.70;;;;;;5135243;27;20066;-66
2022/04/19 13:30:12;;;;;;;6.88;2.50;;;18.00;77.00;;;;;;5134716;27;20054;-66
2022/04/19 13:32:38;;;;;;;6.97;2.90;;;18.10;75.30;;;;;;5134994;27;20090;-66
2022/04/19 13:35:04;;;;;;;4.95;3.00;;;18.10;73.30;;;;;;5136128;27;20023;-65
2022/04/19 13:40:20;;;;;;;7.10;3.20;;;18.00;71.40;;;;;;5101983;27;20368;-70